createdAt,value
2022-10-25T00:00:21.403Z,3.28
2022-10-25T00:03:45.469Z,3.47
2022-10-25T00:06:48.813Z,3.85
2022-10-25T00:09:52.050Z,3.72
2022-10-25T00:12:55.625Z,3.73
2022-10-25T00:16:00.258Z,3.63
2022-10-25T00:19:04.289Z,3.77
2022-10-25T00:22:07.876Z,3.67
2022-10-25T00:25:12.315Z,4.22
2022-10-25T00:28:15.659Z,4.22
2022-10-25T00:31:20.254Z,4.10
2022-10-25T00:34:23.470Z,3.77
2022-10-25T00:37:27.240Z,3.13
2022-10-25T00:40:30.768Z,3.67
2022-10-25T00:43:36.525Z,3.22
2022-10-25T00:46:41.795Z,3.67
2022-10-25T00:49:48.275Z,3.93
2022-10-25T00:52:58.053Z,4.43
2022-10-25T00:56:12.780Z,3.38
2022-10-25T00:59:23.198Z,3.58
2022-10-25T01:02:28.230Z,3.50
2022-10-25T01:05:31.759Z,3.63
2022-10-25T01:08:35.813Z,4.07
2022-10-25T01:11:39.200Z,4.00
2022-10-25T01:14:48.508Z,3.83
2022-10-25T01:18:09.492Z,4.10
2022-10-25T01:21:42.280Z,3.60
2022-10-25T01:25:40.784Z,3.70
2022-10-25T01:29:11.510Z,4.43
2022-10-25T01:32:28.166Z,3.33
2022-10-25T01:35:39.643Z,3.63
2022-10-25T01:38:53.717Z,3.90
2022-10-25T01:42:07.973Z,4.18
2022-10-25T01:45:21.080Z,4.32
2022-10-25T01:48:33.429Z,3.97
2022-10-25T01:51:38.049Z,4.20
2022-10-25T01:54:42.397Z,3.85
2022-10-25T01:58:11.972Z,4.55
2022-10-25T02:01:29.177Z,4.13
2022-10-25T02:04:49.668Z,3.75
2022-10-25T02:08:05.692Z,4.37
2022-10-25T02:11:23.686Z,3.58
2022-10-25T02:14:35.993Z,4.00
2022-10-25T02:17:50.158Z,4.25
2022-10-25T02:20:57.453Z,3.70
2022-10-25T02:24:07.656Z,4.17
2022-10-25T02:27:13.908Z,4.78
2022-10-25T02:30:17.749Z,4.07
2022-10-25T02:33:21.315Z,3.90
2022-10-25T02:36:26.354Z,4.10
2022-10-25T02:39:31.740Z,4.13
2022-10-25T02:42:35.752Z,4.00
2022-10-25T02:45:40.193Z,4.40
2022-10-25T02:48:43.966Z,4.55
2022-10-25T02:51:48.700Z,4.60
2022-10-25T02:54:52.062Z,4.97
2022-10-25T02:57:55.247Z,4.50
2022-10-25T03:00:59.517Z,4.13
2022-10-25T03:04:02.880Z,4.25
2022-10-25T03:07:07.828Z,4.95
2022-10-25T03:10:11.277Z,4.37
2022-10-25T03:13:15.476Z,4.47
2022-10-25T03:16:18.510Z,4.10
2022-10-25T03:19:21.812Z,4.03
2022-10-25T03:22:26.468Z,4.50
2022-10-25T03:25:29.709Z,4.33
2022-10-25T03:28:32.834Z,3.58
2022-10-25T03:31:36.115Z,4.20
2022-10-25T03:34:39.232Z,4.72
2022-10-25T03:37:44.182Z,4.30
2022-10-25T03:40:47.882Z,3.67
2022-10-25T03:43:51.635Z,4.20
2022-10-25T03:46:54.822Z,4.60
2022-10-25T03:49:58.299Z,4.00
2022-10-25T03:53:02.891Z,3.95
2022-10-25T03:56:07.161Z,3.70
2022-10-25T03:59:10.434Z,3.72
2022-10-25T04:02:15.134Z,3.55
2022-10-25T04:05:18.430Z,4.15
2022-10-25T04:08:23.126Z,3.60
2022-10-25T04:11:26.472Z,3.70
2022-10-25T04:14:29.630Z,3.85
2022-10-25T04:17:32.990Z,4.18
2022-10-25T04:20:36.308Z,3.58
2022-10-25T04:23:40.870Z,3.63
2022-10-25T04:26:43.981Z,3.40
2022-10-25T04:29:47.112Z,4.50
2022-10-25T04:32:51.204Z,3.80
2022-10-25T04:35:57.038Z,4.03
2022-10-25T04:39:02.574Z,4.07
2022-10-25T04:42:05.989Z,3.57
2022-10-25T04:45:10.772Z,3.83
2022-10-25T04:48:14.489Z,4.00
2022-10-25T04:51:17.768Z,4.28
2022-10-25T04:54:22.257Z,3.75
2022-10-25T04:57:26.321Z,3.87
2022-10-25T05:00:29.505Z,4.30
2022-10-25T05:03:34.133Z,4.68
2022-10-25T05:06:37.139Z,3.67
2022-10-25T05:09:43.922Z,3.83
2022-10-25T05:12:50.466Z,3.83
2022-10-25T05:15:56.777Z,3.25
2022-10-25T05:19:00.890Z,4.00
2022-10-25T05:22:04.422Z,3.20
2022-10-25T05:25:09.850Z,3.53
2022-10-25T05:28:13.055Z,3.70
2022-10-25T05:31:19.468Z,3.80
2022-10-25T05:34:22.975Z,3.65
2022-10-25T05:37:26.193Z,3.65
2022-10-25T05:40:30.774Z,4.17
2022-10-25T05:43:34.333Z,3.40
2022-10-25T05:46:38.225Z,3.75
2022-10-25T05:49:42.364Z,3.70
2022-10-25T05:52:45.962Z,3.05
2022-10-25T05:55:50.634Z,3.60
2022-10-25T05:58:54.321Z,3.78
2022-10-25T06:01:57.505Z,4.00
2022-10-25T06:05:00.907Z,3.42
2022-10-25T06:08:04.211Z,3.67
2022-10-25T06:11:11.936Z,3.72
2022-10-25T06:14:15.397Z,3.15
2022-10-25T06:17:18.586Z,3.70
2022-10-25T06:20:21.662Z,3.60
2022-10-25T06:23:25.055Z,3.07
2022-10-25T06:26:32.139Z,3.40
2022-10-25T06:29:35.292Z,2.85
2022-10-25T06:32:38.577Z,2.58
2022-10-25T06:35:41.853Z,2.57
2022-10-25T06:38:46.476Z,2.95
2022-10-25T06:41:51.028Z,2.90
2022-10-25T06:44:54.891Z,2.80
2022-10-25T06:47:58.116Z,3.60
2022-10-25T06:51:06.021Z,3.27
2022-10-25T06:54:11.383Z,2.38
2022-10-25T06:57:15.916Z,2.92
2022-10-25T07:00:19.778Z,2.70
2022-10-25T07:03:29.979Z,2.65
2022-10-25T07:06:35.771Z,2.57
2022-10-25T07:09:39.489Z,2.40
2022-10-25T07:12:44.127Z,2.50
2022-10-25T07:15:47.368Z,2.47
2022-10-25T07:18:50.983Z,2.28
2022-10-25T07:21:54.404Z,2.50
2022-10-25T07:24:57.641Z,2.40
2022-10-25T07:28:02.089Z,2.65
2022-10-25T07:31:05.818Z,2.58
2022-10-25T07:34:08.866Z,2.95
2022-10-25T07:37:12.096Z,2.70
2022-10-25T07:40:15.639Z,2.75
2022-10-25T07:43:20.186Z,2.70
2022-10-25T07:46:24.199Z,2.35
2022-10-25T07:49:27.669Z,2.60
2022-10-25T07:52:30.986Z,3.20
2022-10-25T07:55:34.394Z,2.63
2022-10-25T07:58:39.227Z,3.28
2022-10-25T08:01:42.670Z,2.65
2022-10-25T08:04:45.901Z,2.97
2022-10-25T08:07:50.623Z,2.50
2022-10-25T08:10:54.242Z,3.40
2022-10-25T08:13:58.795Z,4.18
2022-10-25T08:17:02.157Z,5.22
2022-10-25T08:20:06.632Z,5.27
2022-10-25T08:23:09.715Z,5.00
2022-10-25T08:26:12.971Z,6.30
2022-10-25T08:29:17.666Z,5.45
2022-10-25T08:32:20.893Z,5.68
2022-10-25T08:35:24.027Z,5.23
2022-10-25T08:38:27.274Z,5.13
2022-10-25T08:41:47.500Z,5.95
2022-10-25T08:45:02.852Z,5.60
2022-10-25T08:48:17.487Z,6.37
2022-10-25T08:51:30.679Z,4.80
2022-10-25T08:54:40.406Z,3.75
2022-10-25T08:57:49.799Z,4.25
2022-10-25T09:00:56.073Z,3.58
2022-10-25T09:04:01.086Z,3.87
2022-10-25T09:07:36.404Z,3.35
2022-10-25T09:10:57.133Z,3.40
2022-10-25T09:14:09.642Z,3.40
2022-10-25T09:17:20.632Z,3.22
2022-10-25T09:20:29.834Z,3.17
2022-10-25T09:23:36.767Z,3.63
2022-10-25T09:26:44.326Z,3.10
2022-10-25T09:29:56.118Z,3.10
2022-10-25T09:33:05.259Z,2.50
2022-10-25T09:36:11.730Z,2.37
2022-10-25T09:39:22.076Z,2.13
2022-10-25T09:42:31.538Z,2.05
2022-10-25T09:45:46.239Z,2.10
2022-10-25T09:48:59.215Z,1.63
2022-10-25T09:52:19.548Z,1.63
2022-10-25T09:55:37.816Z,2.03
2022-10-25T09:58:44.947Z,1.95
2022-10-25T10:01:48.478Z,1.88
2022-10-25T10:04:54.920Z,2.00
2022-10-25T10:07:58.212Z,1.50
2022-10-25T10:11:05.088Z,1.30
2022-10-25T10:14:22.521Z,1.45
2022-10-25T10:17:30.530Z,1.30
2022-10-25T10:20:35.132Z,1.40
2022-10-25T10:23:54.790Z,1.10
2022-10-25T10:27:01.322Z,1.23
2022-10-25T10:30:09.739Z,1.40
2022-10-25T10:33:18.724Z,1.10
2022-10-25T10:36:28.000Z,1.50
2022-10-25T10:39:31.864Z,1.60
2022-10-25T10:42:38.017Z,1.80
2022-10-25T10:45:51.663Z,1.60
2022-10-25T10:48:59.066Z,2.15
2022-10-25T10:52:05.278Z,1.85
2022-10-25T10:55:19.803Z,2.03
2022-10-25T10:58:28.412Z,2.47
2022-10-25T11:01:34.680Z,2.03
2022-10-25T11:04:48.940Z,1.42
2022-10-25T11:08:00.209Z,1.85
2022-10-25T11:11:20.515Z,2.00
2022-10-25T11:14:23.856Z,1.50
2022-10-25T11:17:37.924Z,1.55
2022-10-25T11:20:54.173Z,1.35
2022-10-25T11:24:15.672Z,0.90
2022-10-25T11:27:35.132Z,1.50
2022-10-25T11:30:49.458Z,1.20
2022-10-25T11:34:21.232Z,1.40
2022-10-25T11:37:35.898Z,1.35
2022-10-25T11:40:46.585Z,1.25
2022-10-25T11:44:10.252Z,1.20
2022-10-25T11:47:32.058Z,1.45
2022-10-25T11:50:49.593Z,0.95
2022-10-25T11:54:13.793Z,1.60
2022-10-25T11:57:37.818Z,1.30
2022-10-25T12:00:56.892Z,1.00
2022-10-25T12:04:28.579Z,1.17
2022-10-25T12:07:44.354Z,0.98
2022-10-25T12:10:54.304Z,1.08
2022-10-25T12:14:04.838Z,1.05
2022-10-25T12:17:27.053Z,1.20
2022-10-25T12:20:32.565Z,1.50
2022-10-25T12:23:45.224Z,1.27
2022-10-25T12:26:53.836Z,1.17
2022-10-25T12:30:05.408Z,1.00
2022-10-25T12:33:26.957Z,1.07
2022-10-25T12:36:39.144Z,1.00
2022-10-25T12:39:45.054Z,1.00
2022-10-25T12:42:53.585Z,1.10
2022-10-25T12:46:22.963Z,1.15
2022-10-25T12:49:57.191Z,0.73
2022-10-25T12:53:49.077Z,1.10
2022-10-25T12:57:08.884Z,1.00
2022-10-25T13:00:18.199Z,1.10
2022-10-25T13:03:58.939Z,1.02
2022-10-25T13:07:06.750Z,0.97
2022-10-25T13:10:20.087Z,1.00
2022-10-25T13:13:27.166Z,0.85
2022-10-25T13:16:33.682Z,0.90
2022-10-25T13:19:54.099Z,0.90
2022-10-25T13:22:58.507Z,0.80
2022-10-25T13:26:09.514Z,1.10
2022-10-25T13:30:13.169Z,1.42
2022-10-25T13:33:33.756Z,1.27
2022-10-25T13:36:52.797Z,0.90
2022-10-25T13:39:56.034Z,0.83
2022-10-25T13:43:05.590Z,0.75
2022-10-25T13:46:12.578Z,0.85
2022-10-25T13:49:36.087Z,1.08
2022-10-25T13:52:52.637Z,0.90
2022-10-25T13:56:08.215Z,1.07
2022-10-25T13:59:38.447Z,1.10
2022-10-25T14:03:19.609Z,1.40
2022-10-25T14:06:29.453Z,1.20
2022-10-25T14:09:39.915Z,1.27
2022-10-25T14:12:49.571Z,0.97
2022-10-25T14:16:01.075Z,1.27
2022-10-25T14:19:15.975Z,1.13
2022-10-25T14:22:27.923Z,1.35
2022-10-25T14:25:38.991Z,1.25
2022-10-25T14:28:42.501Z,1.10
2022-10-25T14:31:46.925Z,1.60
2022-10-25T14:34:53.210Z,1.38
2022-10-25T14:37:56.600Z,1.17
2022-10-25T14:41:03.921Z,1.13
2022-10-25T14:44:25.342Z,1.07
2022-10-25T14:47:31.586Z,1.25
2022-10-25T14:50:35.001Z,1.60
2022-10-25T14:53:48.897Z,1.10
2022-10-25T14:56:57.792Z,1.08
2022-10-25T15:00:05.924Z,1.30
2022-10-25T15:03:14.069Z,1.10
2022-10-25T15:06:23.693Z,1.25
2022-10-25T15:09:42.439Z,0.80
2022-10-25T15:12:53.340Z,1.10
2022-10-25T15:15:58.579Z,1.30
2022-10-25T15:19:20.485Z,1.08
2022-10-25T15:22:30.577Z,1.30
2022-10-25T15:25:39.415Z,1.20
2022-10-25T15:28:52.749Z,1.42
2022-10-25T15:31:56.256Z,1.60
2022-10-25T15:35:03.342Z,1.25
2022-10-25T15:38:10.723Z,1.35
2022-10-25T15:41:13.864Z,1.63
2022-10-25T15:44:18.538Z,1.50
2022-10-25T15:47:41.195Z,1.50
2022-10-25T15:50:52.107Z,1.48
2022-10-25T15:53:55.730Z,1.90
2022-10-25T15:56:59.489Z,1.67
2022-10-25T16:00:04.561Z,2.30
2022-10-25T16:03:22.926Z,1.70
2022-10-25T16:06:26.127Z,1.80
2022-10-25T16:09:29.371Z,2.05
2022-10-25T16:12:34.530Z,1.90
2022-10-25T16:15:40.486Z,1.80
2022-10-25T16:18:43.771Z,2.00
2022-10-25T16:21:47.704Z,2.50
2022-10-25T16:24:51.322Z,2.50
2022-10-25T16:27:55.433Z,2.40
2022-10-25T16:31:00.553Z,2.00
2022-10-25T16:34:03.901Z,2.05
2022-10-25T16:37:09.286Z,1.77
2022-10-25T16:40:16.361Z,2.00
2022-10-25T16:43:19.680Z,2.05
2022-10-25T16:46:24.757Z,2.60
2022-10-25T16:49:28.089Z,2.40
2022-10-25T16:52:33.217Z,2.10
2022-10-25T16:55:36.783Z,1.80
2022-10-25T16:58:41.000Z,1.92
2022-10-25T17:01:46.759Z,2.27
2022-10-25T17:04:50.263Z,2.08
2022-10-25T17:07:54.025Z,2.40
2022-10-25T17:10:57.382Z,2.30
2022-10-25T17:14:00.868Z,2.75
2022-10-25T17:17:06.118Z,2.40
2022-10-25T17:20:11.703Z,2.80
2022-10-25T17:23:15.059Z,2.85
2022-10-25T17:26:18.302Z,3.05
2022-10-25T17:29:21.516Z,2.03
2022-10-25T17:32:26.231Z,2.13
2022-10-25T17:35:30.790Z,2.67
2022-10-25T17:38:34.041Z,3.13
2022-10-25T17:41:37.353Z,3.20
2022-10-25T17:44:40.383Z,2.53
2022-10-25T17:47:45.707Z,2.63
2022-10-25T17:50:49.760Z,3.22
2022-10-25T17:53:55.049Z,3.05
2022-10-25T17:57:01.212Z,3.00
2022-10-25T18:00:05.841Z,3.60
2022-10-25T18:03:16.691Z,5.17
2022-10-25T18:06:23.585Z,3.97
2022-10-25T18:09:26.762Z,21.25
2022-10-25T18:12:30.369Z,20.42
2022-10-25T18:15:35.724Z,22.65
2022-10-25T18:18:40.710Z,14.97
2022-10-25T18:21:43.817Z,11.02
2022-10-25T18:24:47.014Z,10.30
2022-10-25T18:27:50.645Z,7.32
2022-10-25T18:31:00.814Z,7.78
2022-10-25T18:34:05.333Z,7.03
2022-10-25T18:37:08.572Z,6.55
2022-10-25T18:40:14.279Z,6.30
2022-10-25T18:43:17.714Z,6.28
2022-10-25T18:46:20.807Z,5.72
2022-10-25T18:49:25.828Z,5.17
2022-10-25T18:52:28.891Z,4.50
2022-10-25T18:55:32.749Z,5.10
2022-10-25T18:58:35.826Z,4.43
2022-10-25T19:01:41.481Z,4.47
2022-10-25T19:04:54.044Z,4.65
2022-10-25T19:07:58.150Z,4.47
2022-10-25T19:11:04.953Z,4.18
2022-10-25T19:14:08.268Z,4.45
2022-10-25T19:17:11.887Z,4.45
2022-10-25T19:20:16.502Z,4.05
2022-10-25T19:23:19.788Z,4.07
2022-10-25T19:26:24.407Z,4.20
2022-10-25T19:29:27.615Z,4.27
2022-10-25T19:32:31.766Z,3.95
2022-10-25T19:35:36.227Z,4.30
2022-10-25T19:38:40.795Z,3.72
2022-10-25T19:41:45.007Z,3.50
2022-10-25T19:44:49.741Z,4.68
2022-10-25T19:47:56.094Z,3.65
2022-10-25T19:51:07.857Z,3.90
2022-10-25T19:54:11.500Z,3.70
2022-10-25T19:57:14.827Z,4.10
2022-10-25T20:00:20.824Z,3.83
2022-10-25T20:03:24.882Z,3.37
2022-10-25T20:06:32.535Z,3.00
2022-10-25T20:09:35.684Z,3.10
2022-10-25T20:12:38.782Z,3.75
2022-10-25T20:15:50.128Z,2.43
2022-10-25T20:18:53.770Z,3.08
2022-10-25T20:21:58.912Z,3.30
2022-10-25T20:25:02.184Z,3.08
2022-10-25T20:28:06.217Z,3.08
2022-10-25T20:31:10.601Z,2.77
2022-10-25T20:34:14.011Z,2.92
2022-10-25T20:37:18.385Z,2.78
2022-10-25T20:40:21.757Z,2.80
2022-10-25T20:43:24.830Z,3.08
2022-10-25T20:46:29.736Z,2.57
2022-10-25T20:49:35.359Z,2.72
2022-10-25T20:52:47.973Z,2.33
2022-10-25T20:56:01.847Z,2.47
2022-10-25T20:59:05.451Z,2.33
2022-10-25T21:02:10.698Z,2.83
2022-10-25T21:05:16.183Z,5.15
2022-10-25T21:08:22.987Z,4.10
2022-10-25T21:11:28.978Z,2.95
2022-10-25T21:14:32.281Z,2.70
2022-10-25T21:17:35.737Z,2.50
2022-10-25T21:20:38.890Z,2.72
2022-10-25T21:23:43.404Z,3.45
2022-10-25T21:26:47.495Z,2.65
2022-10-25T21:29:50.676Z,2.67
2022-10-25T21:32:53.765Z,3.15
2022-10-25T21:36:02.226Z,2.58
2022-10-25T21:39:06.886Z,2.70
2022-10-25T21:42:10.141Z,2.83
2022-10-25T21:45:13.327Z,2.63
2022-10-25T21:48:16.483Z,2.50
2022-10-25T21:51:21.131Z,2.70
2022-10-25T21:54:25.791Z,2.53
2022-10-25T21:57:28.968Z,2.42
2022-10-25T22:00:32.083Z,2.20
2022-10-25T22:03:35.294Z,2.45
2022-10-25T22:06:38.526Z,2.67
2022-10-25T22:09:42.944Z,2.35
2022-10-25T22:12:46.427Z,2.50
2022-10-25T22:15:57.806Z,2.17
2022-10-25T22:19:05.295Z,2.40
2022-10-25T22:22:08.269Z,1.90
2022-10-25T22:25:12.782Z,2.03
2022-10-25T22:28:15.845Z,2.08
2022-10-25T22:31:20.322Z,2.23
2022-10-25T22:34:23.493Z,2.33
2022-10-25T22:37:26.688Z,2.38
2022-10-25T22:40:31.277Z,1.75
2022-10-25T22:43:36.687Z,2.15
2022-10-25T22:46:39.856Z,2.20
2022-10-25T22:49:43.156Z,1.92
2022-10-25T22:52:46.382Z,2.17
2022-10-25T22:56:00.464Z,1.60
2022-10-25T22:59:06.616Z,1.60
2022-10-25T23:02:09.800Z,2.13
2022-10-25T23:05:13.075Z,2.00
2022-10-25T23:08:16.662Z,1.90
2022-10-25T23:11:24.572Z,2.03
2022-10-25T23:14:27.845Z,1.90
2022-10-25T23:17:31.121Z,1.90
2022-10-25T23:20:34.322Z,1.80
2022-10-25T23:23:39.582Z,1.65
2022-10-25T23:26:44.258Z,1.98
2022-10-25T23:29:47.527Z,1.65
2022-10-25T23:32:50.689Z,1.47
2022-10-25T23:35:53.921Z,1.60
2022-10-25T23:38:58.769Z,1.85
2022-10-25T23:42:03.268Z,1.80
2022-10-25T23:45:07.891Z,1.88
2022-10-25T23:48:11.017Z,1.43
2022-10-25T23:51:18.011Z,1.63
2022-10-25T23:54:21.370Z,1.80
2022-10-25T23:57:26.026Z,1.70
